sensor_id;sensor_type;location;lat;lon;timestamp;temperature;humidity
50548;DHT22;38013;48.810;8.818;2023-05-18T00:00:15;7.10;66.40
50548;DHT22;38013;48.810;8.818;2023-05-18T00:02:43;7.00;66.70
50548;DHT22;38013;48.810;8.818;2023-05-18T00:05:10;6.90;66.90
50548;DHT22;38013;48.810;8.818;2023-05-18T00:07:37;6.90;67.00
50548;DHT22;38013;48.810;8.818;2023-05-18T00:10:05;6.90;67.10
50548;DHT22;38013;48.810;8.818;2023-05-18T00:12:33;6.90;67.10
50548;DHT22;38013;48.810;8.818;2023-05-18T00:15:00;6.80;67.20
50548;DHT22;38013;48.810;8.818;2023-05-18T00:17:27;6.80;67.30
50548;DHT22;38013;48.810;8.818;2023-05-18T00:19:55;6.80;67.50
50548;DHT22;38013;48.810;8.818;2023-05-18T00:22:24;6.80;67.60
50548;DHT22;38013;48.810;8.818;2023-05-18T00:24:52;6.80;67.60
50548;DHT22;38013;48.810;8.818;2023-05-18T00:27:19;6.80;67.70
50548;DHT22;38013;48.810;8.818;2023-05-18T00:29:46;6.80;67.80
50548;DHT22;38013;48.810;8.818;2023-05-18T00:32:13;6.80;67.80
50548;DHT22;38013;48.810;8.818;2023-05-18T00:34:39;6.80;67.80
50548;DHT22;38013;48.810;8.818;2023-05-18T00:37:06;6.80;67.80
50548;DHT22;38013;48.810;8.818;2023-05-18T00:39:33;6.80;67.70
50548;DHT22;38013;48.810;8.818;2023-05-18T00:42:01;6.70;67.60
50548;DHT22;38013;48.810;8.818;2023-05-18T00:44:28;6.80;67.70
50548;DHT22;38013;48.810;8.818;2023-05-18T00:46:55;6.80;67.60
50548;DHT22;38013;48.810;8.818;2023-05-18T00:49:22;6.70;67.40
50548;DHT22;38013;48.810;8.818;2023-05-18T00:51:49;6.70;67.50
50548;DHT22;38013;48.810;8.818;2023-05-18T00:54:17;6.70;67.50
50548;DHT22;38013;48.810;8.818;2023-05-18T00:56:46;6.70;67.50
50548;DHT22;38013;48.810;8.818;2023-05-18T00:59:14;6.70;67.70
50548;DHT22;38013;48.810;8.818;2023-05-18T01:01:41;6.60;67.70
50548;DHT22;38013;48.810;8.818;2023-05-18T01:04:12;6.60;68.00
50548;DHT22;38013;48.810;8.818;2023-05-18T01:06:41;6.50;67.20
50548;DHT22;38013;48.810;8.818;2023-05-18T01:09:10;6.50;67.20
50548;DHT22;38013;48.810;8.818;2023-05-18T01:12:05;6.40;67.60
50548;DHT22;38013;48.810;8.818;2023-05-18T01:17:25;6.30;68.40
50548;DHT22;38013;48.810;8.818;2023-05-18T01:20:11;6.20;68.10
50548;DHT22;38013;48.810;8.818;2023-05-18T01:28:29;6.10;68.40
50548;DHT22;38013;48.810;8.818;2023-05-18T01:30:58;6.10;69.30
50548;DHT22;38013;48.810;8.818;2023-05-18T01:33:26;6.10;69.00
50548;DHT22;38013;48.810;8.818;2023-05-18T01:35:53;6.10;69.20
50548;DHT22;38013;48.810;8.818;2023-05-18T01:38:23;6.10;69.30
50548;DHT22;38013;48.810;8.818;2023-05-18T01:40:59;6.10;69.40
50548;DHT22;38013;48.810;8.818;2023-05-18T01:43:36;6.20;69.50
50548;DHT22;38013;48.810;8.818;2023-05-18T01:46:11;6.20;69.20
50548;DHT22;38013;48.810;8.818;2023-05-18T01:48:48;6.20;69.30
50548;DHT22;38013;48.810;8.818;2023-05-18T01:51:20;6.20;69.10
50548;DHT22;38013;48.810;8.818;2023-05-18T01:53:59;6.20;68.90
50548;DHT22;38013;48.810;8.818;2023-05-18T01:56:29;6.20;69.40
50548;DHT22;38013;48.810;8.818;2023-05-18T01:58:58;6.30;68.90
50548;DHT22;38013;48.810;8.818;2023-05-18T02:01:25;6.30;68.90
50548;DHT22;38013;48.810;8.818;2023-05-18T02:03:52;6.30;69.00
50548;DHT22;38013;48.810;8.818;2023-05-18T02:06:20;6.30;69.10
50548;DHT22;38013;48.810;8.818;2023-05-18T02:08:47;6.30;69.20
50548;DHT22;38013;48.810;8.818;2023-05-18T02:11:16;6.40;69.40
50548;DHT22;38013;48.810;8.818;2023-05-18T02:13:43;6.40;69.10
50548;DHT22;38013;48.810;8.818;2023-05-18T02:16:11;6.40;69.10
50548;DHT22;38013;48.810;8.818;2023-05-18T02:18:39;6.40;69.10
50548;DHT22;38013;48.810;8.818;2023-05-18T02:21:07;6.40;69.00
50548;DHT22;38013;48.810;8.818;2023-05-18T02:23:35;6.40;69.00
50548;DHT22;38013;48.810;8.818;2023-05-18T02:26:02;6.40;69.10
50548;DHT22;38013;48.810;8.818;2023-05-18T02:28:29;6.30;69.20
50548;DHT22;38013;48.810;8.818;2023-05-18T02:31:10;6.30;69.40
50548;DHT22;38013;48.810;8.818;2023-05-18T02:33:38;6.40;70.30
50548;DHT22;38013;48.810;8.818;2023-05-18T02:36:12;6.40;69.40
50548;DHT22;38013;48.810;8.818;2023-05-18T02:38:41;6.30;69.60
50548;DHT22;38013;48.810;8.818;2023-05-18T02:41:10;6.30;70.00
50548;DHT22;38013;48.810;8.818;2023-05-18T02:43:37;6.30;69.20
50548;DHT22;38013;48.810;8.818;2023-05-18T02:46:06;6.30;69.20
50548;DHT22;38013;48.810;8.818;2023-05-18T02:48:34;6.30;69.10
50548;DHT22;38013;48.810;8.818;2023-05-18T02:51:01;6.30;69.10
50548;DHT22;38013;48.810;8.818;2023-05-18T02:53:28;6.20;69.10
50548;DHT22;38013;48.810;8.818;2023-05-18T02:56:01;6.20;69.10
50548;DHT22;38013;48.810;8.818;2023-05-18T02:58:42;6.20;69.10
50548;DHT22;38013;48.810;8.818;2023-05-18T03:01:19;6.20;69.20
50548;DHT22;38013;48.810;8.818;2023-05-18T03:03:51;6.20;69.10
50548;DHT22;38013;48.810;8.818;2023-05-18T03:06:19;6.20;69.20
50548;DHT22;38013;48.810;8.818;2023-05-18T03:08:53;6.20;69.30
50548;DHT22;38013;48.810;8.818;2023-05-18T03:11:25;6.20;69.40
50548;DHT22;38013;48.810;8.818;2023-05-18T03:13:52;6.20;69.50
50548;DHT22;38013;48.810;8.818;2023-05-18T03:16:20;6.20;69.50
50548;DHT22;38013;48.810;8.818;2023-05-18T03:18:47;6.20;69.50
50548;DHT22;38013;48.810;8.818;2023-05-18T03:21:14;6.20;69.50
50548;DHT22;38013;48.810;8.818;2023-05-18T03:23:42;6.10;69.60
50548;DHT22;38013;48.810;8.818;2023-05-18T03:26:09;6.20;69.80
50548;DHT22;38013;48.810;8.818;2023-05-18T03:28:38;6.10;69.90
50548;DHT22;38013;48.810;8.818;2023-05-18T03:31:05;6.10;70.20
50548;DHT22;38013;48.810;8.818;2023-05-18T03:33:32;6.10;70.50
50548;DHT22;38013;48.810;8.818;2023-05-18T03:36:03;6.10;70.70
50548;DHT22;38013;48.810;8.818;2023-05-18T03:38:30;6.10;70.90
50548;DHT22;38013;48.810;8.818;2023-05-18T03:41:03;6.10;70.80
50548;DHT22;38013;48.810;8.818;2023-05-18T03:43:30;6.10;70.90
50548;DHT22;38013;48.810;8.818;2023-05-18T03:45:59;6.10;70.80
50548;DHT22;38013;48.810;8.818;2023-05-18T03:48:28;6.10;71.30
50548;DHT22;38013;48.810;8.818;2023-05-18T03:50:55;6.10;70.70
50548;DHT22;38013;48.810;8.818;2023-05-18T03:53:25;6.10;70.60
50548;DHT22;38013;48.810;8.818;2023-05-18T03:55:53;6.10;70.60
50548;DHT22;38013;48.810;8.818;2023-05-18T03:58:20;6.10;70.70
50548;DHT22;38013;48.810;8.818;2023-05-18T04:00:47;6.10;70.80
50548;DHT22;38013;48.810;8.818;2023-05-18T04:03:15;6.20;70.80
50548;DHT22;38013;48.810;8.818;2023-05-18T04:05:42;6.20;70.70
50548;DHT22;38013;48.810;8.818;2023-05-18T04:08:10;6.10;70.40
50548;DHT22;38013;48.810;8.818;2023-05-18T04:10:41;6.10;70.30
50548;DHT22;38013;48.810;8.818;2023-05-18T04:13:09;6.10;70.50
50548;DHT22;38013;48.810;8.818;2023-05-18T04:15:36;6.10;70.70
50548;DHT22;38013;48.810;8.818;2023-05-18T04:18:03;6.10;71.10
50548;DHT22;38013;48.810;8.818;2023-05-18T04:20:30;6.10;71.10
50548;DHT22;38013;48.810;8.818;2023-05-18T04:22:59;6.10;72.00
50548;DHT22;38013;48.810;8.818;2023-05-18T04:25:26;6.10;71.50
50548;DHT22;38013;48.810;8.818;2023-05-18T04:27:55;6.10;71.60
50548;DHT22;38013;48.810;8.818;2023-05-18T04:30:26;6.10;71.80
50548;DHT22;38013;48.810;8.818;2023-05-18T04:32:55;6.20;71.80
50548;DHT22;38013;48.810;8.818;2023-05-18T04:35:23;6.10;71.50
50548;DHT22;38013;48.810;8.818;2023-05-18T04:37:52;6.20;71.40
50548;DHT22;38013;48.810;8.818;2023-05-18T04:40:20;6.20;71.30
50548;DHT22;38013;48.810;8.818;2023-05-18T04:42:48;6.20;71.20
50548;DHT22;38013;48.810;8.818;2023-05-18T04:45:22;6.20;71.70
50548;DHT22;38013;48.810;8.818;2023-05-18T04:47:53;6.20;71.10
50548;DHT22;38013;48.810;8.818;2023-05-18T04:50:21;6.30;71.10
50548;DHT22;38013;48.810;8.818;2023-05-18T04:52:52;6.20;71.10
50548;DHT22;38013;48.810;8.818;2023-05-18T04:55:21;6.20;71.20
50548;DHT22;38013;48.810;8.818;2023-05-18T04:57:54;6.30;71.50
50548;DHT22;38013;48.810;8.818;2023-05-18T05:00:27;6.30;71.60
50548;DHT22;38013;48.810;8.818;2023-05-18T05:02:56;6.40;71.80
50548;DHT22;38013;48.810;8.818;2023-05-18T05:05:25;6.40;72.00
50548;DHT22;38013;48.810;8.818;2023-05-18T05:07:53;6.40;72.70
50548;DHT22;38013;48.810;8.818;2023-05-18T05:10:21;6.50;72.50
50548;DHT22;38013;48.810;8.818;2023-05-18T05:12:51;6.50;72.80
50548;DHT22;38013;48.810;8.818;2023-05-18T05:15:18;6.60;73.30
50548;DHT22;38013;48.810;8.818;2023-05-18T05:17:48;6.70;73.20
50548;DHT22;38013;48.810;8.818;2023-05-18T05:20:16;6.70;73.10
50548;DHT22;38013;48.810;8.818;2023-05-18T05:22:43;6.80;73.00
50548;DHT22;38013;48.810;8.818;2023-05-18T05:25:14;6.90;73.00
50548;DHT22;38013;48.810;8.818;2023-05-18T05:27:41;6.90;73.00
50548;DHT22;38013;48.810;8.818;2023-05-18T05:30:08;7.00;73.20
50548;DHT22;38013;48.810;8.818;2023-05-18T05:32:37;7.00;73.90
50548;DHT22;38013;48.810;8.818;2023-05-18T05:35:05;7.10;73.60
50548;DHT22;38013;48.810;8.818;2023-05-18T05:37:34;7.20;74.00
50548;DHT22;38013;48.810;8.818;2023-05-18T05:40:02;7.30;74.20
50548;DHT22;38013;48.810;8.818;2023-05-18T05:42:36;7.40;74.40
50548;DHT22;38013;48.810;8.818;2023-05-18T05:45:03;7.50;74.60
50548;DHT22;38013;48.810;8.818;2023-05-18T05:47:36;7.60;74.70
50548;DHT22;38013;48.810;8.818;2023-05-18T05:50:04;7.70;74.80
50548;DHT22;38013;48.810;8.818;2023-05-18T05:52:33;7.80;74.90
50548;DHT22;38013;48.810;8.818;2023-05-18T05:55:00;8.00;74.80
50548;DHT22;38013;48.810;8.818;2023-05-18T05:57:29;8.00;74.70
50548;DHT22;38013;48.810;8.818;2023-05-18T05:59:56;8.20;74.70
50548;DHT22;38013;48.810;8.818;2023-05-18T06:02:24;8.30;74.60
50548;DHT22;38013;48.810;8.818;2023-05-18T06:04:53;8.40;74.60
50548;DHT22;38013;48.810;8.818;2023-05-18T06:07:20;8.50;74.60
50548;DHT22;38013;48.810;8.818;2023-05-18T06:09:47;8.70;74.50
50548;DHT22;38013;48.810;8.818;2023-05-18T06:12:17;8.80;74.10
50548;DHT22;38013;48.810;8.818;2023-05-18T06:14:44;8.90;73.60
50548;DHT22;38013;48.810;8.818;2023-05-18T06:17:11;9.00;73.20
50548;DHT22;38013;48.810;8.818;2023-05-18T06:19:38;9.10;72.90
50548;DHT22;38013;48.810;8.818;2023-05-18T06:22:05;9.20;72.30
50548;DHT22;38013;48.810;8.818;2023-05-18T06:24:41;9.40;71.90
50548;DHT22;38013;48.810;8.818;2023-05-18T06:27:24;9.50;71.60
50548;DHT22;38013;48.810;8.818;2023-05-18T06:30:06;9.70;71.10
50548;DHT22;38013;48.810;8.818;2023-05-18T06:32:56;9.70;70.80
50548;DHT22;38013;48.810;8.818;2023-05-18T06:35:23;9.90;71.20
50548;DHT22;38013;48.810;8.818;2023-05-18T06:37:50;10.10;70.30
50548;DHT22;38013;48.810;8.818;2023-05-18T06:40:19;10.20;70.10
50548;DHT22;38013;48.810;8.818;2023-05-18T06:42:46;10.30;69.70
50548;DHT22;38013;48.810;8.818;2023-05-18T06:45:23;10.40;69.50
50548;DHT22;38013;48.810;8.818;2023-05-18T06:47:53;10.60;69.10
50548;DHT22;38013;48.810;8.818;2023-05-18T06:50:21;10.70;68.50
50548;DHT22;38013;48.810;8.818;2023-05-18T06:52:49;10.70;68.30
50548;DHT22;38013;48.810;8.818;2023-05-18T06:55:17;10.80;68.00
50548;DHT22;38013;48.810;8.818;2023-05-18T06:57:46;11.00;67.70
50548;DHT22;38013;48.810;8.818;2023-05-18T07:00:14;11.00;67.40
50548;DHT22;38013;48.810;8.818;2023-05-18T07:02:42;11.10;66.80
50548;DHT22;38013;48.810;8.818;2023-05-18T07:05:11;11.20;66.70
50548;DHT22;38013;48.810;8.818;2023-05-18T07:07:38;11.30;66.70
50548;DHT22;38013;48.810;8.818;2023-05-18T07:10:05;11.40;66.50
50548;DHT22;38013;48.810;8.818;2023-05-18T07:12:33;11.40;66.30
50548;DHT22;38013;48.810;8.818;2023-05-18T07:15:00;11.50;66.30
50548;DHT22;38013;48.810;8.818;2023-05-18T07:17:27;11.60;66.00
50548;DHT22;38013;48.810;8.818;2023-05-18T07:19:54;11.70;66.00
50548;DHT22;38013;48.810;8.818;2023-05-18T07:22:22;11.70;66.00
50548;DHT22;38013;48.810;8.818;2023-05-18T07:24:49;11.80;65.60
50548;DHT22;38013;48.810;8.818;2023-05-18T07:27:16;11.80;65.50
50548;DHT22;38013;48.810;8.818;2023-05-18T07:29:43;12.00;66.20
50548;DHT22;38013;48.810;8.818;2023-05-18T07:32:10;12.00;65.50
50548;DHT22;38013;48.810;8.818;2023-05-18T07:34:37;12.10;65.40
50548;DHT22;38013;48.810;8.818;2023-05-18T07:37:04;12.20;65.20
50548;DHT22;38013;48.810;8.818;2023-05-18T07:39:36;12.20;65.30
50548;DHT22;38013;48.810;8.818;2023-05-18T07:42:04;12.30;65.10
50548;DHT22;38013;48.810;8.818;2023-05-18T07:44:31;12.40;65.10
50548;DHT22;38013;48.810;8.818;2023-05-18T07:46:58;12.50;65.00
50548;DHT22;38013;48.810;8.818;2023-05-18T07:49:26;12.60;64.80
50548;DHT22;38013;48.810;8.818;2023-05-18T07:51:53;12.70;64.50
50548;DHT22;38013;48.810;8.818;2023-05-18T07:54:20;12.80;64.10
50548;DHT22;38013;48.810;8.818;2023-05-18T07:56:47;12.90;64.10
50548;DHT22;38013;48.810;8.818;2023-05-18T07:59:14;12.90;63.80
50548;DHT22;38013;48.810;8.818;2023-05-18T08:01:41;13.00;63.80
50548;DHT22;38013;48.810;8.818;2023-05-18T08:04:10;13.10;63.90
50548;DHT22;38013;48.810;8.818;2023-05-18T08:06:37;13.10;64.30
50548;DHT22;38013;48.810;8.818;2023-05-18T08:09:04;13.20;63.40
50548;DHT22;38013;48.810;8.818;2023-05-18T08:11:32;13.30;63.30
50548;DHT22;38013;48.810;8.818;2023-05-18T08:13:59;13.30;62.90
50548;DHT22;38013;48.810;8.818;2023-05-18T08:16:26;13.40;62.90
50548;DHT22;38013;48.810;8.818;2023-05-18T08:18:53;13.50;62.60
50548;DHT22;38013;48.810;8.818;2023-05-18T08:21:20;13.60;62.50
50548;DHT22;38013;48.810;8.818;2023-05-18T08:23:47;13.60;62.40
50548;DHT22;38013;48.810;8.818;2023-05-18T08:26:14;13.70;62.30
50548;DHT22;38013;48.810;8.818;2023-05-18T08:28:41;13.80;62.20
50548;DHT22;38013;48.810;8.818;2023-05-18T08:31:09;13.80;61.80
50548;DHT22;38013;48.810;8.818;2023-05-18T08:33:37;13.90;61.60
50548;DHT22;38013;48.810;8.818;2023-05-18T08:36:05;13.90;61.40
50548;DHT22;38013;48.810;8.818;2023-05-18T08:38:32;14.00;61.50
50548;DHT22;38013;48.810;8.818;2023-05-18T08:41:28;14.10;61.60
50548;DHT22;38013;48.810;8.818;2023-05-18T08:44:04;14.20;60.50
50548;DHT22;38013;48.810;8.818;2023-05-18T08:46:39;14.20;60.60
50548;DHT22;38013;48.810;8.818;2023-05-18T08:49:09;14.30;60.10
50548;DHT22;38013;48.810;8.818;2023-05-18T08:51:36;14.30;60.60
50548;DHT22;38013;48.810;8.818;2023-05-18T08:54:05;14.40;61.10
50548;DHT22;38013;48.810;8.818;2023-05-18T08:56:33;14.50;60.20
50548;DHT22;38013;48.810;8.818;2023-05-18T08:59:03;14.60;60.50
50548;DHT22;38013;48.810;8.818;2023-05-18T09:01:34;14.70;60.20
50548;DHT22;38013;48.810;8.818;2023-05-18T09:04:01;14.70;59.90
50548;DHT22;38013;48.810;8.818;2023-05-18T09:06:29;14.80;59.40
50548;DHT22;38013;48.810;8.818;2023-05-18T09:08:58;14.90;59.10
50548;DHT22;38013;48.810;8.818;2023-05-18T09:11:31;15.00;59.20
50548;DHT22;38013;48.810;8.818;2023-05-18T09:13:59;15.10;58.90
50548;DHT22;38013;48.810;8.818;2023-05-18T09:16:27;15.20;58.70
50548;DHT22;38013;48.810;8.818;2023-05-18T09:18:54;15.30;58.40
50548;DHT22;38013;48.810;8.818;2023-05-18T09:21:21;15.30;58.00
50548;DHT22;38013;48.810;8.818;2023-05-18T09:23:49;15.40;58.00
50548;DHT22;38013;48.810;8.818;2023-05-18T09:26:18;15.60;57.80
50548;DHT22;38013;48.810;8.818;2023-05-18T09:28:51;15.60;57.60
50548;DHT22;38013;48.810;8.818;2023-05-18T09:31:20;15.70;57.00
50548;DHT22;38013;48.810;8.818;2023-05-18T09:33:51;15.90;56.90
50548;DHT22;38013;48.810;8.818;2023-05-18T09:36:23;15.90;56.50
50548;DHT22;38013;48.810;8.818;2023-05-18T09:38:52;16.10;56.20
50548;DHT22;38013;48.810;8.818;2023-05-18T09:41:19;16.10;56.30
50548;DHT22;38013;48.810;8.818;2023-05-18T09:43:49;16.20;56.00
50548;DHT22;38013;48.810;8.818;2023-05-18T09:46:17;16.30;55.30
50548;DHT22;38013;48.810;8.818;2023-05-18T09:48:49;16.40;55.40
50548;DHT22;38013;48.810;8.818;2023-05-18T09:51:17;16.50;55.60
50548;DHT22;38013;48.810;8.818;2023-05-18T09:53:54;16.60;55.20
50548;DHT22;38013;48.810;8.818;2023-05-18T09:56:23;16.70;54.50
50548;DHT22;38013;48.810;8.818;2023-05-18T09:58:50;16.80;54.40
50548;DHT22;38013;48.810;8.818;2023-05-18T10:01:18;16.90;54.30
50548;DHT22;38013;48.810;8.818;2023-05-18T10:03:45;17.00;54.10
50548;DHT22;38013;48.810;8.818;2023-05-18T10:06:14;17.10;53.80
50548;DHT22;38013;48.810;8.818;2023-05-18T10:08:45;17.20;53.60
50548;DHT22;38013;48.810;8.818;2023-05-18T10:11:17;17.30;53.80
50548;DHT22;38013;48.810;8.818;2023-05-18T10:13:46;17.40;52.70
50548;DHT22;38013;48.810;8.818;2023-05-18T10:16:14;17.50;53.60
50548;DHT22;38013;48.810;8.818;2023-05-18T10:18:42;17.60;53.00
50548;DHT22;38013;48.810;8.818;2023-05-18T10:21:10;17.70;53.10
50548;DHT22;38013;48.810;8.818;2023-05-18T10:23:40;17.80;53.00
50548;DHT22;38013;48.810;8.818;2023-05-18T10:26:08;18.00;52.60
50548;DHT22;38013;48.810;8.818;2023-05-18T10:28:40;18.10;51.90
50548;DHT22;38013;48.810;8.818;2023-05-18T10:31:08;18.20;51.80
50548;DHT22;38013;48.810;8.818;2023-05-18T10:33:36;18.40;52.30
50548;DHT22;38013;48.810;8.818;2023-05-18T10:36:05;18.50;52.20
50548;DHT22;38013;48.810;8.818;2023-05-18T10:38:33;18.70;51.50
50548;DHT22;38013;48.810;8.818;2023-05-18T10:41:04;18.80;50.60
50548;DHT22;38013;48.810;8.818;2023-05-18T10:43:32;18.90;50.80
50548;DHT22;38013;48.810;8.818;2023-05-18T10:46:00;19.10;50.70
50548;DHT22;38013;48.810;8.818;2023-05-18T10:48:28;19.20;50.00
50548;DHT22;38013;48.810;8.818;2023-05-18T10:50:56;19.30;49.30
50548;DHT22;38013;48.810;8.818;2023-05-18T10:53:25;19.40;49.30
50548;DHT22;38013;48.810;8.818;2023-05-18T10:55:55;19.40;49.20
50548;DHT22;38013;48.810;8.818;2023-05-18T10:58:24;19.50;49.60
50548;DHT22;38013;48.810;8.818;2023-05-18T11:01:04;19.60;48.70
50548;DHT22;38013;48.810;8.818;2023-05-18T11:03:34;19.70;47.80
50548;DHT22;38013;48.810;8.818;2023-05-18T11:06:08;19.80;48.80
50548;DHT22;38013;48.810;8.818;2023-05-18T11:08:48;19.90;48.00
50548;DHT22;38013;48.810;8.818;2023-05-18T11:11:16;20.10;47.00
50548;DHT22;38013;48.810;8.818;2023-05-18T11:13:49;20.10;47.60
50548;DHT22;38013;48.810;8.818;2023-05-18T11:16:18;20.20;47.50
50548;DHT22;38013;48.810;8.818;2023-05-18T11:18:48;20.20;47.40
50548;DHT22;38013;48.810;8.818;2023-05-18T11:27:15;20.60;46.40
50548;DHT22;38013;48.810;8.818;2023-05-18T11:29:45;20.80;46.60
50548;DHT22;38013;48.810;8.818;2023-05-18T11:32:22;21.00;46.50
50548;DHT22;38013;48.810;8.818;2023-05-18T11:34:56;21.10;45.40
50548;DHT22;38013;48.810;8.818;2023-05-18T11:43:23;21.50;44.50
50548;DHT22;38013;48.810;8.818;2023-05-18T11:45:59;21.60;43.60
50548;DHT22;38013;48.810;8.818;2023-05-18T11:48:27;21.70;42.90
50548;DHT22;38013;48.810;8.818;2023-05-18T11:50:56;21.70;44.30
50548;DHT22;38013;48.810;8.818;2023-05-18T11:53:24;21.80;44.50
50548;DHT22;38013;48.810;8.818;2023-05-18T11:55:52;21.90;44.20
50548;DHT22;38013;48.810;8.818;2023-05-18T11:58:23;22.00;44.40
50548;DHT22;38013;48.810;8.818;2023-05-18T12:00:52;22.10;43.00
50548;DHT22;38013;48.810;8.818;2023-05-18T12:03:24;22.20;43.60
50548;DHT22;38013;48.810;8.818;2023-05-18T12:05:52;22.30;45.30
50548;DHT22;38013;48.810;8.818;2023-05-18T12:08:19;22.40;43.30
50548;DHT22;38013;48.810;8.818;2023-05-18T12:10:50;22.40;43.50
50548;DHT22;38013;48.810;8.818;2023-05-18T12:13:19;22.50;41.90
50548;DHT22;38013;48.810;8.818;2023-05-18T12:15:49;22.60;42.80
50548;DHT22;38013;48.810;8.818;2023-05-18T12:18:18;22.70;42.30
50548;DHT22;38013;48.810;8.818;2023-05-18T12:20:44;22.70;41.80
50548;DHT22;38013;48.810;8.818;2023-05-18T12:23:15;22.80;42.00
50548;DHT22;38013;48.810;8.818;2023-05-18T12:25:42;22.80;41.50
50548;DHT22;38013;48.810;8.818;2023-05-18T12:28:09;22.80;41.10
50548;DHT22;38013;48.810;8.818;2023-05-18T12:30:36;22.90;41.10
50548;DHT22;38013;48.810;8.818;2023-05-18T12:33:04;22.80;40.60
50548;DHT22;38013;48.810;8.818;2023-05-18T12:35:32;22.80;41.40
50548;DHT22;38013;48.810;8.818;2023-05-18T12:38:00;22.80;42.10
50548;DHT22;38013;48.810;8.818;2023-05-18T12:40:36;22.90;40.80
50548;DHT22;38013;48.810;8.818;2023-05-18T12:43:12;22.90;40.00
50548;DHT22;38013;48.810;8.818;2023-05-18T12:45:39;22.90;40.20
50548;DHT22;38013;48.810;8.818;2023-05-18T12:48:08;22.90;40.90
50548;DHT22;38013;48.810;8.818;2023-05-18T12:50:48;22.90;41.10
50548;DHT22;38013;48.810;8.818;2023-05-18T12:53:16;23.00;39.90
50548;DHT22;38013;48.810;8.818;2023-05-18T12:55:43;23.10;40.90
50548;DHT22;38013;48.810;8.818;2023-05-18T12:58:11;23.20;40.60
50548;DHT22;38013;48.810;8.818;2023-05-18T13:00:47;23.20;40.20
50548;DHT22;38013;48.810;8.818;2023-05-18T13:03:18;23.30;40.00
50548;DHT22;38013;48.810;8.818;2023-05-18T13:06:02;23.40;39.70
50548;DHT22;38013;48.810;8.818;2023-05-18T13:08:32;23.50;39.60
50548;DHT22;38013;48.810;8.818;2023-05-18T13:11:07;23.50;40.40
50548;DHT22;38013;48.810;8.818;2023-05-18T13:14:00;23.60;39.70
50548;DHT22;38013;48.810;8.818;2023-05-18T13:16:28;23.50;38.70
50548;DHT22;38013;48.810;8.818;2023-05-18T13:18:57;23.40;38.60
50548;DHT22;38013;48.810;8.818;2023-05-18T13:21:26;23.30;39.60
50548;DHT22;38013;48.810;8.818;2023-05-18T13:23:53;23.20;39.40
50548;DHT22;38013;48.810;8.818;2023-05-18T13:26:21;23.10;39.30
50548;DHT22;38013;48.810;8.818;2023-05-18T13:28:50;23.00;40.10
50548;DHT22;38013;48.810;8.818;2023-05-18T13:31:19;23.00;40.00
50548;DHT22;38013;48.810;8.818;2023-05-18T13:33:47;23.10;39.70
50548;DHT22;38013;48.810;8.818;2023-05-18T13:36:15;23.10;39.80
50548;DHT22;38013;48.810;8.818;2023-05-18T13:38:43;23.20;39.40
50548;DHT22;38013;48.810;8.818;2023-05-18T13:41:10;23.20;38.90
50548;DHT22;38013;48.810;8.818;2023-05-18T13:43:41;23.20;38.40
50548;DHT22;38013;48.810;8.818;2023-05-18T13:46:08;23.10;39.50
50548;DHT22;38013;48.810;8.818;2023-05-18T13:48:35;23.00;39.50
50548;DHT22;38013;48.810;8.818;2023-05-18T13:51:02;23.00;39.30
50548;DHT22;38013;48.810;8.818;2023-05-18T13:53:30;23.00;39.70
50548;DHT22;38013;48.810;8.818;2023-05-18T13:55:57;23.00;39.70
50548;DHT22;38013;48.810;8.818;2023-05-18T13:58:24;22.90;40.00
50548;DHT22;38013;48.810;8.818;2023-05-18T14:00:51;23.00;41.30
50548;DHT22;38013;48.810;8.818;2023-05-18T14:03:19;23.00;40.60
50548;DHT22;38013;48.810;8.818;2023-05-18T14:05:47;23.10;40.20
50548;DHT22;38013;48.810;8.818;2023-05-18T14:08:14;23.20;40.40
50548;DHT22;38013;48.810;8.818;2023-05-18T14:10:41;23.30;40.00
50548;DHT22;38013;48.810;8.818;2023-05-18T14:13:08;23.40;39.70
50548;DHT22;38013;48.810;8.818;2023-05-18T14:15:35;23.40;39.30
50548;DHT22;38013;48.810;8.818;2023-05-18T14:18:03;23.50;39.50
50548;DHT22;38013;48.810;8.818;2023-05-18T14:20:30;23.60;39.50
50548;DHT22;38013;48.810;8.818;2023-05-18T14:22:57;23.70;39.20
50548;DHT22;38013;48.810;8.818;2023-05-18T14:25:25;23.80;39.10
50548;DHT22;38013;48.810;8.818;2023-05-18T14:27:52;23.90;38.90
50548;DHT22;38013;48.810;8.818;2023-05-18T14:30:19;24.00;39.20
50548;DHT22;38013;48.810;8.818;2023-05-18T14:32:47;24.10;39.30
50548;DHT22;38013;48.810;8.818;2023-05-18T14:35:14;24.20;38.90
50548;DHT22;38013;48.810;8.818;2023-05-18T14:37:41;24.30;38.40
50548;DHT22;38013;48.810;8.818;2023-05-18T14:40:08;24.30;37.70
50548;DHT22;38013;48.810;8.818;2023-05-18T14:42:36;24.20;37.40
50548;DHT22;38013;48.810;8.818;2023-05-18T14:45:03;24.10;37.30
50548;DHT22;38013;48.810;8.818;2023-05-18T14:47:31;24.00;37.90
50548;DHT22;38013;48.810;8.818;2023-05-18T14:49:58;24.00;38.10
50548;DHT22;38013;48.810;8.818;2023-05-18T14:52:24;23.90;38.10
50548;DHT22;38013;48.810;8.818;2023-05-18T14:54:51;23.90;37.80
50548;DHT22;38013;48.810;8.818;2023-05-18T14:57:20;23.80;37.30
50548;DHT22;38013;48.810;8.818;2023-05-18T14:59:47;23.70;37.10
50548;DHT22;38013;48.810;8.818;2023-05-18T15:02:14;23.70;36.80
50548;DHT22;38013;48.810;8.818;2023-05-18T15:04:41;23.50;36.90
50548;DHT22;38013;48.810;8.818;2023-05-18T15:07:10;23.40;38.00
50548;DHT22;38013;48.810;8.818;2023-05-18T15:09:37;23.30;37.80
50548;DHT22;38013;48.810;8.818;2023-05-18T15:12:04;23.30;38.40
50548;DHT22;38013;48.810;8.818;2023-05-18T15:14:31;23.30;38.50
50548;DHT22;38013;48.810;8.818;2023-05-18T15:16:58;23.40;38.40
50548;DHT22;38013;48.810;8.818;2023-05-18T15:19:25;23.30;38.10
50548;DHT22;38013;48.810;8.818;2023-05-18T15:21:52;23.30;38.30
50548;DHT22;38013;48.810;8.818;2023-05-18T15:24:19;23.20;38.00
50548;DHT22;38013;48.810;8.818;2023-05-18T15:26:46;23.10;37.80
50548;DHT22;38013;48.810;8.818;2023-05-18T15:29:13;23.00;37.80
50548;DHT22;38013;48.810;8.818;2023-05-18T15:31:40;22.90;37.80
50548;DHT22;38013;48.810;8.818;2023-05-18T15:34:07;22.70;37.90
50548;DHT22;38013;48.810;8.818;2023-05-18T15:36:34;22.60;37.70
50548;DHT22;38013;48.810;8.818;2023-05-18T15:39:02;22.50;37.80
50548;DHT22;38013;48.810;8.818;2023-05-18T15:41:33;22.30;38.60
50548;DHT22;38013;48.810;8.818;2023-05-18T15:44:00;22.20;38.10
50548;DHT22;38013;48.810;8.818;2023-05-18T15:46:29;22.00;38.30
50548;DHT22;38013;48.810;8.818;2023-05-18T15:48:57;21.90;38.80
50548;DHT22;38013;48.810;8.818;2023-05-18T15:51:24;21.90;39.50
50548;DHT22;38013;48.810;8.818;2023-05-18T15:53:52;21.80;39.30
50548;DHT22;38013;48.810;8.818;2023-05-18T15:56:19;21.80;39.60
50548;DHT22;38013;48.810;8.818;2023-05-18T15:58:47;22.00;39.90
50548;DHT22;38013;48.810;8.818;2023-05-18T16:01:14;22.10;40.00
50548;DHT22;38013;48.810;8.818;2023-05-18T16:03:41;22.20;39.40
50548;DHT22;38013;48.810;8.818;2023-05-18T16:06:09;22.30;39.50
50548;DHT22;38013;48.810;8.818;2023-05-18T16:08:36;22.40;39.20